createdAt,value
2022-11-26T00:01:19.600Z,99095.92
2022-11-26T00:03:47.574Z,99092.39
2022-11-26T00:06:38.724Z,99095.23
2022-11-26T00:09:08.506Z,99093.07
2022-11-26T00:11:35.250Z,99092.53
2022-11-26T00:14:01.970Z,99097.33
2022-11-26T00:16:29.388Z,99099.75
2022-11-26T00:18:56.151Z,99103.56
2022-11-26T00:21:26.332Z,99107.10
2022-11-26T00:23:54.989Z,99105.98
2022-11-26T00:26:25.432Z,99107.82
2022-11-26T00:28:56.461Z,99108.47
2022-11-26T00:31:24.209Z,99113.34
2022-11-26T00:33:50.917Z,99110.20
2022-11-26T00:36:30.085Z,99115.25
2022-11-26T00:39:03.521Z,99119.74
2022-11-26T00:41:34.109Z,99126.02
2022-11-26T00:44:00.805Z,99133.80
2022-11-26T00:46:27.824Z,99136.35
2022-11-26T00:48:54.503Z,99137.80
2022-11-26T00:51:25.184Z,99139.27
2022-11-26T00:53:54.963Z,99145.05
2022-11-26T00:56:22.718Z,99139.41
2022-11-26T00:58:50.670Z,99144.75
2022-11-26T01:01:20.952Z,99140.85
2022-11-26T01:03:47.969Z,99148.77
2022-11-26T01:06:19.080Z,99148.05
2022-11-26T01:08:46.080Z,99153.66
2022-11-26T01:11:15.843Z,99152.36
2022-11-26T01:13:43.996Z,99159.41
2022-11-26T01:16:34.449Z,99162.96
2022-11-26T01:19:02.426Z,99166.27
2022-11-26T01:21:30.995Z,99166.92
2022-11-26T01:23:57.969Z,99169.60
2022-11-26T01:26:27.898Z,99166.10
2022-11-26T01:28:55.512Z,99162.77
2022-11-26T01:31:25.596Z,99165.39
2022-11-26T01:33:52.487Z,99176.41
2022-11-26T01:36:36.348Z,99176.10
2022-11-26T01:39:10.610Z,99177.58
2022-11-26T01:41:59.796Z,99176.66
2022-11-26T01:44:29.710Z,99175.59
2022-11-26T01:46:57.192Z,99175.04
2022-11-26T01:49:29.110Z,99176.21
2022-11-26T01:52:02.115Z,99174.96
2022-11-26T01:54:29.097Z,99169.05
2022-11-26T01:57:04.882Z,99169.39
2022-11-26T01:59:37.186Z,99172.89
2022-11-26T02:02:04.344Z,99171.45
2022-11-26T02:04:49.691Z,99173.31
2022-11-26T02:07:16.423Z,99174.02
2022-11-26T02:09:44.341Z,99174.79
2022-11-26T02:12:11.429Z,99171.58
2022-11-26T02:14:42.732Z,99169.05
2022-11-26T02:17:19.792Z,99172.62
2022-11-26T02:20:01.947Z,99170.48
2022-11-26T02:22:44.086Z,99173.20
2022-11-26T02:25:41.442Z,99176.68
2022-11-26T02:28:30.953Z,99177.39
2022-11-26T02:31:06.136Z,99180.36
2022-11-26T02:33:40.946Z,99181.64
2022-11-26T02:36:14.793Z,99178.23
2022-11-26T02:38:41.626Z,99174.98
2022-11-26T02:41:09.222Z,99178.23
2022-11-26T02:43:37.344Z,99178.28
2022-11-26T02:46:11.399Z,99176.11
2022-11-26T02:48:41.335Z,99175.96
2022-11-26T02:51:14.440Z,99176.29
2022-11-26T02:53:43.172Z,99173.75
2022-11-26T02:56:16.236Z,99175.08
2022-11-26T02:58:44.190Z,99177.30
2022-11-26T03:01:16.364Z,99175.60
2022-11-26T03:03:47.538Z,99176.63
2022-11-26T03:06:15.125Z,99178.41
2022-11-26T03:08:45.371Z,99182.20
2022-11-26T03:11:14.081Z,99183.36
2022-11-26T03:13:40.942Z,99181.16
2022-11-26T03:16:08.003Z,99185.36
2022-11-26T03:18:34.736Z,99185.14
2022-11-26T03:21:01.408Z,99180.36
2022-11-26T03:23:28.135Z,99187.59
2022-11-26T03:25:54.971Z,99186.35
2022-11-26T03:28:21.706Z,99187.61
2022-11-26T03:30:50.861Z,99186.71
2022-11-26T03:33:17.535Z,99187.17
2022-11-26T03:35:44.621Z,99188.10
2022-11-26T03:38:11.354Z,99188.16
2022-11-26T03:40:38.072Z,99190.55
2022-11-26T03:43:04.893Z,99192.90
2022-11-26T03:45:32.105Z,99197.35
2022-11-26T03:47:58.815Z,99196.70
2022-11-26T03:50:25.702Z,99200.81
2022-11-26T03:52:52.692Z,99199.98
2022-11-26T03:55:19.469Z,99203.62
2022-11-26T03:57:46.159Z,99204.72
2022-11-26T04:00:13.423Z,99208.71
2022-11-26T04:02:40.185Z,99210.69
2022-11-26T04:05:07.703Z,99208.96
2022-11-26T04:07:34.488Z,99204.99
2022-11-26T04:10:01.246Z,99211.80
2022-11-26T04:12:27.949Z,99214.73
2022-11-26T04:14:54.715Z,99221.13
2022-11-26T04:17:21.857Z,99225.16
2022-11-26T04:19:48.533Z,99226.56
2022-11-26T04:22:15.267Z,99226.36
2022-11-26T04:24:42.429Z,99235.08
2022-11-26T04:27:09.137Z,99236.59
2022-11-26T04:29:37.466Z,99241.71
2022-11-26T04:32:05.039Z,99238.73
2022-11-26T04:34:32.065Z,99243.73
2022-11-26T04:36:58.771Z,99247.02
2022-11-26T04:39:25.518Z,99251.19
2022-11-26T04:41:52.372Z,99253.01
2022-11-26T04:44:19.108Z,99254.02
2022-11-26T04:46:45.772Z,99255.64
2022-11-26T04:49:12.600Z,99254.83
2022-11-26T04:51:39.229Z,99258.99
2022-11-26T04:54:11.422Z,99263.45
2022-11-26T04:56:39.942Z,99265.64
2022-11-26T04:59:06.624Z,99268.19
2022-11-26T05:01:33.384Z,99271.16
2022-11-26T05:04:00.109Z,99269.84
2022-11-26T05:06:26.803Z,99272.27
2022-11-26T05:08:53.604Z,99280.77
2022-11-26T05:11:20.304Z,99276.77
2022-11-26T05:13:46.988Z,99274.56
2022-11-26T05:16:13.810Z,99274.13
2022-11-26T05:18:40.592Z,99273.08
2022-11-26T05:21:07.580Z,99271.38
2022-11-26T05:23:34.418Z,99273.25
2022-11-26T05:26:01.188Z,99270.39
2022-11-26T05:28:28.122Z,99275.80
2022-11-26T05:31:00.053Z,99277.16
2022-11-26T05:33:27.506Z,99275.42
2022-11-26T05:35:54.368Z,99273.41
2022-11-26T05:38:21.162Z,99272.77
2022-11-26T05:40:47.840Z,99274.13
2022-11-26T05:43:14.572Z,99281.81
2022-11-26T05:45:41.348Z,99283.42
2022-11-26T05:48:08.085Z,99288.10
2022-11-26T05:50:34.773Z,99294.58
2022-11-26T05:53:01.697Z,99299.80
2022-11-26T05:55:28.522Z,99303.04
2022-11-26T05:57:55.202Z,99305.41
2022-11-26T06:00:24.841Z,99312.40
2022-11-26T06:02:51.696Z,99311.06
2022-11-26T06:05:18.581Z,99307.05
2022-11-26T06:07:45.510Z,99313.52
2022-11-26T06:10:13.212Z,99318.81
2022-11-26T06:12:39.921Z,99320.29
2022-11-26T06:15:07.096Z,99322.52
2022-11-26T06:17:33.739Z,99327.95
2022-11-26T06:20:00.406Z,99329.62
2022-11-26T06:22:27.170Z,99328.85
2022-11-26T06:24:54.036Z,99330.30
2022-11-26T06:27:20.997Z,99329.67
2022-11-26T06:29:47.729Z,99334.02
2022-11-26T06:32:14.402Z,99336.84
2022-11-26T06:34:43.894Z,99342.45
2022-11-26T06:37:11.064Z,99343.61
2022-11-26T06:39:37.716Z,99344.92
2022-11-26T06:42:04.459Z,99343.27
2022-11-26T06:44:31.202Z,99346.89
2022-11-26T06:46:57.953Z,99348.85
2022-11-26T06:49:24.606Z,99351.14
2022-11-26T06:51:51.293Z,99349.38
2022-11-26T06:54:18.110Z,99349.89
2022-11-26T06:56:44.903Z,99351.84
2022-11-26T06:59:11.634Z,99356.25
2022-11-26T07:01:38.895Z,99358.27
2022-11-26T07:04:05.757Z,99357.44
2022-11-26T07:06:33.178Z,99362.20
2022-11-26T07:09:05.894Z,99365.79
2022-11-26T07:11:33.294Z,99369.05
2022-11-26T07:14:01.585Z,99371.29
2022-11-26T07:16:28.995Z,99373.36
2022-11-26T07:19:02.661Z,99374.30
2022-11-26T07:21:30.344Z,99376.55
2022-11-26T07:23:57.986Z,99382.25
2022-11-26T07:26:24.804Z,99385.08
2022-11-26T07:28:52.190Z,99389.23
2022-11-26T07:31:22.311Z,99386.98
2022-11-26T07:33:50.086Z,99388.76
2022-11-26T07:36:23.847Z,99392.50
2022-11-26T07:38:53.279Z,99390.87
2022-11-26T07:41:20.484Z,99394.16
2022-11-26T07:43:47.743Z,99397.00
2022-11-26T07:46:18.045Z,99396.98
2022-11-26T07:48:45.535Z,99398.70
2022-11-26T07:51:19.831Z,99402.90
2022-11-26T07:53:47.427Z,99405.14
2022-11-26T07:56:14.782Z,99407.76
2022-11-26T07:58:41.874Z,99409.85
2022-11-26T08:01:10.781Z,99408.41
2022-11-26T08:03:39.864Z,99408.17
2022-11-26T08:06:08.941Z,99410.24
2022-11-26T08:08:36.792Z,99416.73
2022-11-26T08:11:04.864Z,99417.44
2022-11-26T08:13:31.637Z,99420.72
2022-11-26T08:15:58.413Z,99422.77
2022-11-26T08:18:25.171Z,99422.68
2022-11-26T08:20:56.321Z,99419.61
2022-11-26T08:23:24.287Z,99422.59
2022-11-26T08:26:20.360Z,99420.73
2022-11-26T08:28:38.576Z,99422.42
2022-11-26T08:31:09.774Z,99426.20
2022-11-26T08:33:37.202Z,99426.35
2022-11-26T08:36:07.608Z,99422.04
2022-11-26T08:38:36.621Z,99424.26
2022-11-26T08:41:07.103Z,99427.01
2022-11-26T08:44:04.674Z,99431.33
2022-11-26T08:46:22.963Z,99435.23
2022-11-26T08:48:49.752Z,99437.71
2022-11-26T08:51:17.394Z,99439.47
2022-11-26T08:53:45.998Z,99446.83
2022-11-26T08:56:13.802Z,99445.05
2022-11-26T08:58:44.236Z,99449.35
2022-11-26T09:01:15.866Z,99449.61
2022-11-26T09:03:43.761Z,99453.22
2022-11-26T09:06:11.194Z,99452.70
2022-11-26T09:08:58.878Z,99455.09
2022-11-26T09:11:27.014Z,99455.02
2022-11-26T09:13:53.847Z,99458.14
2022-11-26T09:16:22.472Z,99460.70
2022-11-26T09:18:50.867Z,99465.15
2022-11-26T09:21:18.444Z,99459.83
2022-11-26T09:23:45.121Z,99461.86
2022-11-26T09:26:12.198Z,99465.35
2022-11-26T09:28:39.572Z,99464.31
2022-11-26T09:31:06.560Z,99470.03
2022-11-26T09:33:33.478Z,99467.50
2022-11-26T09:36:10.590Z,99469.25
2022-11-26T09:38:38.062Z,99466.61
2022-11-26T09:41:20.297Z,99470.58
2022-11-26T09:44:02.208Z,99467.77
2022-11-26T09:46:50.856Z,99473.40
2022-11-26T09:49:25.701Z,99471.98
2022-11-26T09:51:58.094Z,99475.94
2022-11-26T09:54:28.461Z,99477.17
2022-11-26T09:57:06.327Z,99472.60
2022-11-26T09:59:36.166Z,99472.27
2022-11-26T10:02:03.090Z,99471.48
2022-11-26T10:04:35.396Z,99468.08
2022-11-26T10:07:21.107Z,99467.67
2022-11-26T10:10:04.333Z,99468.09
2022-11-26T10:13:11.285Z,99468.05
2022-11-26T10:15:44.247Z,99466.44
2022-11-26T10:18:25.949Z,99468.30
2022-11-26T10:21:02.813Z,99468.08
2022-11-26T10:23:35.947Z,99471.14
2022-11-26T10:26:33.770Z,99473.60
2022-11-26T10:29:15.844Z,99473.91
2022-11-26T10:31:45.286Z,99474.13
2022-11-26T10:34:39.345Z,99469.91
2022-11-26T10:37:06.743Z,99472.70
2022-11-26T10:39:33.410Z,99474.56
2022-11-26T10:42:09.499Z,99473.41
2022-11-26T10:44:40.578Z,99472.38
2022-11-26T10:47:29.031Z,99472.62
2022-11-26T10:50:19.251Z,99468.30
2022-11-26T10:53:06.897Z,99467.23
2022-11-26T10:55:41.481Z,99466.54
2022-11-26T10:58:17.230Z,99469.33
2022-11-26T11:00:54.068Z,99464.32
2022-11-26T11:03:38.508Z,99467.10
2022-11-26T11:06:28.950Z,99465.84
2022-11-26T11:08:56.009Z,99462.05
2022-11-26T11:11:26.573Z,99465.70
2022-11-26T11:13:54.729Z,99463.69
2022-11-26T11:16:30.986Z,99462.84
2022-11-26T11:19:02.614Z,99461.00
2022-11-26T11:21:34.469Z,99461.14
2022-11-26T11:24:18.773Z,99462.58
2022-11-26T11:26:48.040Z,99465.78
2022-11-26T11:29:33.296Z,99467.07
2022-11-26T11:32:04.581Z,99469.11
2022-11-26T11:34:38.786Z,99470.49
2022-11-26T11:37:22.023Z,99470.58
2022-11-26T11:40:05.556Z,99473.54
2022-11-26T11:42:32.656Z,99471.18
2022-11-26T11:45:00.887Z,99473.08
2022-11-26T11:47:38.160Z,99472.88
2022-11-26T11:50:23.209Z,99474.78
2022-11-26T11:52:54.766Z,99474.44
2022-11-26T11:55:36.837Z,99478.95
2022-11-26T11:58:22.915Z,99479.14
2022-11-26T12:01:00.395Z,99477.52
2022-11-26T12:03:42.776Z,99480.17
2022-11-26T12:06:24.526Z,99480.31
2022-11-26T12:09:13.818Z,99480.73
2022-11-26T12:12:01.423Z,99481.08
2022-11-26T12:14:32.488Z,99479.42
2022-11-26T12:17:14.157Z,99483.48
2022-11-26T12:19:50.064Z,99486.51
2022-11-26T12:22:29.909Z,99487.02
2022-11-26T12:25:07.071Z,99487.27
2022-11-26T12:27:42.899Z,99489.77
2022-11-26T12:30:22.057Z,99487.01
2022-11-26T12:32:55.553Z,99491.42
2022-11-26T12:35:43.433Z,99485.56
2022-11-26T12:38:25.266Z,99488.33
2022-11-26T12:41:00.923Z,99489.66
2022-11-26T12:43:50.866Z,99487.73
2022-11-26T12:46:25.244Z,99490.92
2022-11-26T12:49:05.800Z,99489.72
2022-11-26T12:51:38.779Z,99490.10
2022-11-26T12:54:14.510Z,99490.63
2022-11-26T12:57:03.238Z,99493.89
2022-11-26T12:59:37.468Z,99495.11
2022-11-26T13:02:21.054Z,99494.51
2022-11-26T13:04:48.176Z,99497.63
2022-11-26T13:07:37.519Z,99497.88
2022-11-26T13:10:28.980Z,99496.61
2022-11-26T13:13:19.535Z,99498.13
2022-11-26T13:16:06.881Z,99500.78
2022-11-26T13:18:39.738Z,99500.02
2022-11-26T13:21:30.975Z,99499.30
2022-11-26T13:24:27.532Z,99504.00
2022-11-26T13:26:54.237Z,99508.08
2022-11-26T13:29:35.696Z,99506.95
2022-11-26T13:32:26.159Z,99502.30
2022-11-26T13:35:03.696Z,99504.27
2022-11-26T13:37:49.666Z,99505.02
2022-11-26T13:40:34.769Z,99505.59
2022-11-26T13:43:31.954Z,99508.73
2022-11-26T13:46:07.205Z,99513.58
2022-11-26T13:48:36.741Z,99511.90
2022-11-26T13:51:16.657Z,99513.29
2022-11-26T13:53:52.621Z,99512.92
2022-11-26T13:56:23.954Z,99516.25
2022-11-26T13:58:59.213Z,99518.42
2022-11-26T14:01:37.178Z,99523.50
2022-11-26T14:04:07.944Z,99525.14
2022-11-26T14:06:35.625Z,99526.37
2022-11-26T14:09:03.462Z,99524.33
2022-11-26T14:11:45.994Z,99522.18
2022-11-26T14:14:28.216Z,99524.77
2022-11-26T14:17:02.371Z,99524.44
2022-11-26T14:19:44.578Z,99521.38
2022-11-26T14:22:11.409Z,99521.97
2022-11-26T14:24:58.432Z,99522.48
2022-11-26T14:27:43.015Z,99523.27
2022-11-26T14:30:18.211Z,99526.29
2022-11-26T14:32:55.780Z,99529.94
2022-11-26T14:35:34.713Z,99530.86
2022-11-26T14:38:04.185Z,99534.35
2022-11-26T14:40:34.857Z,99540.68
2022-11-26T14:43:19.668Z,99538.88
2022-11-26T14:45:58.797Z,99531.63
2022-11-26T14:48:28.144Z,99545.29
2022-11-26T14:50:57.525Z,99545.00
2022-11-26T14:53:29.073Z,99547.96
2022-11-26T14:55:56.766Z,99553.45
2022-11-26T14:58:32.482Z,99557.80
2022-11-26T15:01:05.518Z,99560.73
2022-11-26T15:03:32.662Z,99557.90
2022-11-26T15:05:59.521Z,99557.80
2022-11-26T15:08:27.289Z,99560.98
2022-11-26T15:11:05.332Z,99561.45
2022-11-26T15:13:35.077Z,99564.63
2022-11-26T15:16:04.161Z,99565.32
2022-11-26T15:18:34.702Z,99566.52
2022-11-26T15:21:03.707Z,99565.97
2022-11-26T15:23:37.271Z,99568.92
2022-11-26T15:26:04.529Z,99568.02
2022-11-26T15:28:38.819Z,99567.69
2022-11-26T15:31:08.532Z,99567.27
2022-11-26T15:33:37.128Z,99570.48
2022-11-26T15:36:05.928Z,99572.61
2022-11-26T15:38:35.015Z,99576.17
2022-11-26T15:41:08.425Z,99576.56
2022-11-26T15:43:41.920Z,99581.27
2022-11-26T15:46:17.452Z,99578.77
2022-11-26T15:48:52.809Z,99577.48
2022-11-26T15:51:22.046Z,99583.76
2022-11-26T15:53:50.543Z,99580.83
2022-11-26T15:56:22.322Z,99586.88
2022-11-26T15:58:54.140Z,99589.62
2022-11-26T16:01:24.914Z,99590.34
2022-11-26T16:03:54.197Z,99587.89
2022-11-26T16:06:29.620Z,99595.08
2022-11-26T16:09:19.169Z,99598.24
2022-11-26T16:12:02.681Z,99602.38
2022-11-26T16:14:36.744Z,99600.34
2022-11-26T16:17:08.766Z,99602.59
2022-11-26T16:19:36.550Z,99607.00
2022-11-26T16:22:05.838Z,99613.88
2022-11-26T16:24:43.781Z,99618.33
2022-11-26T16:27:17.882Z,99615.05
2022-11-26T16:29:45.007Z,99616.18
2022-11-26T16:32:13.229Z,99618.56
2022-11-26T16:34:40.026Z,99619.77
2022-11-26T16:37:19.689Z,99622.18
2022-11-26T16:39:46.753Z,99621.39
2022-11-26T16:42:16.624Z,99622.85
2022-11-26T16:44:43.309Z,99624.30
2022-11-26T16:47:16.056Z,99622.17
2022-11-26T16:49:42.920Z,99631.60
2022-11-26T16:52:13.323Z,99633.48
2022-11-26T16:54:40.282Z,99636.52
2022-11-26T16:57:13.881Z,99636.46
2022-11-26T16:59:41.660Z,99639.42
2022-11-26T17:02:17.424Z,99640.48
2022-11-26T17:04:44.959Z,99642.04
2022-11-26T17:07:14.042Z,99645.14
2022-11-26T17:09:41.226Z,99650.64
2022-11-26T17:12:23.195Z,99659.20
2022-11-26T17:14:50.440Z,99666.98
2022-11-26T17:17:25.043Z,99670.80
2022-11-26T17:19:52.125Z,99673.32
2022-11-26T17:22:18.825Z,99678.34
2022-11-26T17:24:45.591Z,99674.46
2022-11-26T17:27:15.336Z,99680.84
2022-11-26T17:29:44.837Z,99680.11
2022-11-26T17:32:28.312Z,99680.18
2022-11-26T17:34:55.020Z,99686.92
2022-11-26T17:37:30.329Z,99684.38
2022-11-26T17:39:57.938Z,99688.77
2022-11-26T17:42:25.350Z,99687.02
2022-11-26T17:44:53.424Z,99689.79
2022-11-26T17:47:23.905Z,99692.70
2022-11-26T17:49:51.938Z,99689.55
2022-11-26T17:52:18.924Z,99698.85
2022-11-26T17:54:46.231Z,99699.73
2022-11-26T17:57:14.899Z,99700.00
2022-11-26T17:59:42.578Z,99697.34
2022-11-26T18:02:10.532Z,99699.58
2022-11-26T18:04:37.630Z,99699.35
2022-11-26T18:07:04.316Z,99697.61
2022-11-26T18:09:31.268Z,99696.33
2022-11-26T18:11:58.027Z,99690.81
2022-11-26T18:14:24.976Z,99691.43
2022-11-26T18:16:52.668Z,99691.16
2022-11-26T18:19:21.076Z,99693.99
2022-11-26T18:24:34.837Z,99704.38
2022-11-26T18:27:01.761Z,99701.00
2022-11-26T18:29:30.136Z,99704.13
2022-11-26T18:31:56.985Z,99703.73
2022-11-26T18:34:24.003Z,99706.95
2022-11-26T18:36:53.865Z,99709.66
2022-11-26T18:39:21.198Z,99714.67
2022-11-26T18:41:47.893Z,99720.23
2022-11-26T18:44:14.528Z,99720.69
2022-11-26T18:46:41.361Z,99725.71
2022-11-26T18:49:08.026Z,99728.95
2022-11-26T18:51:34.730Z,99735.27
2022-11-26T18:54:02.495Z,99741.30
2022-11-26T18:56:29.185Z,99746.73
2022-11-26T18:58:55.899Z,99748.45
2022-11-26T19:01:28.942Z,99752.86
2022-11-26T19:03:57.082Z,99753.11
2022-11-26T19:06:26.165Z,99753.92
2022-11-26T19:08:58.829Z,99751.14
2022-11-26T19:11:26.539Z,99751.22
2022-11-26T19:13:55.026Z,99758.73
2022-11-26T19:16:23.143Z,99762.88
2022-11-26T19:18:50.177Z,99770.66
2022-11-26T19:21:18.576Z,99771.09
2022-11-26T19:23:45.542Z,99770.35
2022-11-26T19:26:13.397Z,99770.81
2022-11-26T19:28:40.554Z,99770.14
2022-11-26T19:31:11.181Z,99770.87
2022-11-26T19:33:38.687Z,99775.83
2022-11-26T19:36:07.914Z,99777.25
2022-11-26T19:38:35.451Z,99779.84
2022-11-26T19:41:21.307Z,99780.20
2022-11-26T19:43:52.135Z,99775.06
2022-11-26T19:46:20.917Z,99778.00
2022-11-26T19:48:49.188Z,99777.16
2022-11-26T19:51:17.909Z,99782.64
2022-11-26T19:53:48.430Z,99784.52
2022-11-26T19:56:16.854Z,99787.43
2022-11-26T19:58:43.585Z,99794.83
2022-11-26T20:01:13.809Z,99798.08
2022-11-26T20:03:41.166Z,99799.22
2022-11-26T20:06:15.712Z,99801.70
2022-11-26T20:08:43.325Z,99792.55
2022-11-26T20:11:10.692Z,99797.34
2022-11-26T20:13:39.911Z,99803.69
2022-11-26T20:16:08.555Z,99803.37
2022-11-26T20:18:38.444Z,99803.09
2022-11-26T20:21:09.937Z,99808.00
2022-11-26T20:23:37.876Z,99810.18
2022-11-26T20:26:13.226Z,99815.71
2022-11-26T20:28:40.122Z,99818.41
2022-11-26T20:31:06.970Z,99818.02
2022-11-26T20:33:50.366Z,99823.00
2022-11-26T20:36:33.158Z,99821.77
2022-11-26T20:39:01.892Z,99822.23
2022-11-26T20:41:29.816Z,99833.22
2022-11-26T20:43:59.430Z,99834.85
2022-11-26T20:46:28.112Z,99833.91
2022-11-26T20:48:55.085Z,99835.06
2022-11-26T20:51:22.377Z,99834.34
2022-11-26T20:53:50.818Z,99831.69
2022-11-26T20:56:19.781Z,99832.30
2022-11-26T20:58:47.554Z,99836.13
2022-11-26T21:01:19.293Z,99832.50
2022-11-26T21:03:46.900Z,99836.48
2022-11-26T21:06:15.297Z,99839.73
2022-11-26T21:08:45.131Z,99840.34
2022-11-26T21:11:16.068Z,99835.01
2022-11-26T21:13:43.139Z,99839.45
2022-11-26T21:16:14.123Z,99842.67
2022-11-26T21:18:56.707Z,99846.41
2022-11-26T21:21:25.209Z,99846.51
2022-11-26T21:23:52.761Z,99852.83
2022-11-26T21:26:23.214Z,99853.86
2022-11-26T21:28:51.872Z,99852.46
2022-11-26T21:31:19.992Z,99852.30
2022-11-26T21:33:47.823Z,99854.20
2022-11-26T21:36:16.740Z,99849.86
2022-11-26T21:38:48.010Z,99851.87
2022-11-26T21:41:16.324Z,99848.70
2022-11-26T21:43:44.828Z,99853.34
2022-11-26T21:46:17.928Z,99854.41
2022-11-26T21:48:44.949Z,99854.38
2022-11-26T21:51:14.066Z,99860.05
2022-11-26T21:53:41.420Z,99858.71
2022-11-26T21:56:14.596Z,99858.31
2022-11-26T21:58:41.606Z,99857.95
2022-11-26T22:01:19.399Z,99857.90
2022-11-26T22:03:49.765Z,99857.80
2022-11-26T22:06:17.588Z,99859.48
2022-11-26T22:08:47.498Z,99863.07
2022-11-26T22:11:15.407Z,99860.34
2022-11-26T22:13:42.450Z,99860.90
2022-11-26T22:16:10.875Z,99863.27
2022-11-26T22:18:39.310Z,99864.12
2022-11-26T22:21:10.846Z,99866.29
2022-11-26T22:23:37.644Z,99865.86
2022-11-26T22:26:04.662Z,99862.77
2022-11-26T22:28:31.431Z,99862.48
2022-11-26T22:30:58.351Z,99865.98
2022-11-26T22:33:25.001Z,99864.77
2022-11-26T22:35:51.812Z,99859.95
2022-11-26T22:38:18.492Z,99863.83
2022-11-26T22:40:45.144Z,99862.81
2022-11-26T22:43:11.863Z,99864.14
2022-11-26T22:45:38.607Z,99869.45
2022-11-26T22:48:05.773Z,99870.94
2022-11-26T22:50:32.481Z,99866.77
2022-11-26T22:52:59.141Z,99871.21
2022-11-26T22:55:25.854Z,99868.62
2022-11-26T22:57:52.510Z,99862.48
2022-11-26T23:00:48.531Z,99855.77
2022-11-26T23:03:16.121Z,99858.42
2022-11-26T23:05:43.127Z,99859.19
2022-11-26T23:08:12.609Z,99855.58
2022-11-26T23:10:40.136Z,99860.06
2022-11-26T23:13:08.461Z,99862.61
2022-11-26T23:15:44.575Z,99858.55
2022-11-26T23:18:13.624Z,99856.13
2022-11-26T23:20:41.283Z,99858.75
2022-11-26T23:23:08.482Z,99862.93
2022-11-26T23:25:40.254Z,99867.96
2022-11-26T23:28:07.731Z,99865.08
2022-11-26T23:30:35.751Z,99856.13
2022-11-26T23:33:02.863Z,99854.73
2022-11-26T23:35:29.960Z,99866.58
2022-11-26T23:37:56.604Z,99869.15
2022-11-26T23:40:23.470Z,99870.25
2022-11-26T23:42:50.236Z,99872.14
2022-11-26T23:45:17.094Z,99871.91
2022-11-26T23:47:43.767Z,99871.48
2022-11-26T23:50:12.021Z,99867.61
2022-11-26T23:52:38.776Z,99867.05
2022-11-26T23:55:05.852Z,99866.84
2022-11-26T23:57:32.771Z,99857.77
